createdAt,value
2023-04-04T00:01:50.241Z,4.18
2023-04-04T00:04:00.770Z,4.95
2023-04-04T00:06:09.056Z,4.00
2023-04-04T00:08:16.909Z,4.70
2023-04-04T00:10:24.888Z,4.63
2023-04-04T00:12:33.100Z,5.72
2023-04-04T00:14:41.009Z,4.38
2023-04-04T00:16:49.685Z,3.92
2023-04-04T00:19:00.347Z,5.20
2023-04-04T00:21:08.248Z,4.55
2023-04-04T00:23:16.198Z,4.65
2023-04-04T00:25:24.104Z,4.95
2023-04-04T00:27:31.978Z,4.80
2023-04-04T00:29:40.413Z,4.03
2023-04-04T00:31:48.699Z,4.00
2023-04-04T00:33:56.758Z,4.35
2023-04-04T00:36:07.818Z,5.50
2023-04-04T00:38:18.619Z,4.68
2023-04-04T00:40:27.061Z,4.70
2023-04-04T00:42:37.580Z,4.47
2023-04-04T00:44:45.665Z,4.30
2023-04-04T00:46:54.957Z,5.45
2023-04-04T00:49:04.971Z,5.60
2023-04-04T00:51:16.072Z,4.57
2023-04-04T00:53:24.078Z,4.63
2023-04-04T00:55:32.879Z,7.53
2023-04-04T00:57:41.024Z,4.80
2023-04-04T00:59:49.291Z,4.65
2023-04-04T01:01:57.550Z,4.70
2023-04-04T01:04:06.239Z,4.50
2023-04-04T01:06:17.872Z,4.20
2023-04-04T01:08:31.793Z,4.75
2023-04-04T01:10:42.519Z,5.15
2023-04-04T01:12:51.433Z,4.97
2023-04-04T01:14:59.531Z,5.18
2023-04-04T01:17:08.567Z,4.97
2023-04-04T01:19:23.293Z,6.25
2023-04-04T01:21:34.255Z,5.38
2023-04-04T01:23:52.764Z,4.63
2023-04-04T01:26:16.788Z,4.75
2023-04-04T01:28:25.429Z,5.03
2023-04-04T01:30:36.739Z,4.50
2023-04-04T01:32:49.169Z,4.07
2023-04-04T01:35:04.553Z,4.93
2023-04-04T01:37:16.541Z,4.10
2023-04-04T01:39:30.289Z,5.03
2023-04-04T01:41:42.656Z,4.32
2023-04-04T01:43:51.620Z,5.25
2023-04-04T01:46:01.674Z,9.82
2023-04-04T01:48:11.419Z,5.32
2023-04-04T01:50:21.065Z,4.63
2023-04-04T01:52:29.395Z,5.15
2023-04-04T01:54:37.445Z,4.90
2023-04-04T01:56:48.439Z,4.80
2023-04-04T01:58:56.496Z,4.65
2023-04-04T02:01:08.195Z,7.78
2023-04-04T02:03:16.137Z,4.68
2023-04-04T02:05:24.207Z,4.75
2023-04-04T02:07:32.309Z,4.30
2023-04-04T02:09:40.314Z,4.40
2023-04-04T02:11:50.974Z,5.63
2023-04-04T02:13:59.286Z,4.85
2023-04-04T02:16:08.409Z,4.75
2023-04-04T02:18:16.654Z,7.68
2023-04-04T02:20:24.900Z,5.25
2023-04-04T02:22:33.118Z,6.22
2023-04-04T02:24:40.969Z,4.85
2023-04-04T02:26:52.182Z,4.43
2023-04-04T02:29:00.005Z,6.85
2023-04-04T02:31:08.070Z,5.57
2023-04-04T02:33:16.102Z,5.28
2023-04-04T02:35:25.555Z,5.45
2023-04-04T02:37:33.576Z,5.32
2023-04-04T02:39:43.056Z,4.85
2023-04-04T02:41:54.458Z,4.88
2023-04-04T02:44:04.094Z,5.70
2023-04-04T02:46:21.271Z,4.93
2023-04-04T02:48:32.898Z,6.28
2023-04-04T02:50:43.605Z,4.80
2023-04-04T02:52:55.135Z,5.93
2023-04-04T02:55:03.912Z,5.55
2023-04-04T02:57:18.803Z,5.18
2023-04-04T02:59:26.953Z,6.43
2023-04-04T03:01:35.215Z,5.60
2023-04-04T03:03:45.410Z,5.40
2023-04-04T03:05:53.828Z,9.90
2023-04-04T03:08:02.590Z,6.20
2023-04-04T03:10:12.128Z,5.07
2023-04-04T03:12:23.442Z,6.57
2023-04-04T03:14:32.125Z,5.55
2023-04-04T03:16:40.504Z,5.13
2023-04-04T03:18:48.747Z,5.13
2023-04-04T03:20:59.249Z,6.00
2023-04-04T03:23:07.334Z,5.22
2023-04-04T03:25:16.147Z,6.00
2023-04-04T03:27:26.889Z,5.72
2023-04-04T03:29:34.840Z,5.68
2023-04-04T03:31:44.163Z,7.50
2023-04-04T03:33:52.066Z,6.30
2023-04-04T03:36:00.039Z,5.65
2023-04-04T03:38:07.986Z,6.35
2023-04-04T03:40:16.806Z,7.00
2023-04-04T03:42:27.405Z,5.35
2023-04-04T03:44:36.737Z,6.38
2023-04-04T03:46:45.825Z,5.70
2023-04-04T03:48:55.119Z,6.97
2023-04-04T03:51:03.754Z,5.80
2023-04-04T03:53:12.074Z,5.50
2023-04-04T03:55:20.114Z,5.85
2023-04-04T03:57:30.750Z,6.32
2023-04-04T03:59:39.210Z,5.85
2023-04-04T04:01:47.051Z,5.50
2023-04-04T04:03:55.071Z,6.13
2023-04-04T04:06:03.297Z,6.30
2023-04-04T04:08:13.420Z,6.20
2023-04-04T04:10:21.670Z,6.25
2023-04-04T04:12:32.309Z,6.53
2023-04-04T04:14:40.577Z,11.25
2023-04-04T04:16:49.693Z,6.55
2023-04-04T04:19:02.108Z,5.57
2023-04-04T04:21:19.354Z,6.85
2023-04-04T04:23:27.292Z,5.80
2023-04-04T04:25:35.400Z,6.30
2023-04-04T04:27:58.178Z,5.72
2023-04-04T04:30:10.573Z,5.78
2023-04-04T04:32:22.926Z,6.63
2023-04-04T04:34:33.934Z,6.03
2023-04-04T04:36:41.906Z,6.50
2023-04-04T04:39:06.345Z,6.53
2023-04-04T04:41:18.770Z,6.38
2023-04-04T04:43:33.177Z,6.70
2023-04-04T04:45:41.577Z,6.25
2023-04-04T04:47:51.395Z,6.60
2023-04-04T04:50:01.538Z,6.65
2023-04-04T04:52:19.449Z,10.77
2023-04-04T04:54:28.024Z,5.93
2023-04-04T04:56:36.703Z,6.03
2023-04-04T04:58:52.417Z,5.65
2023-04-04T05:01:04.303Z,5.45
2023-04-04T05:03:19.269Z,6.65
2023-04-04T05:05:31.590Z,5.80
2023-04-04T05:07:48.186Z,5.85
2023-04-04T05:09:57.072Z,5.93
2023-04-04T05:12:05.050Z,5.95
2023-04-04T05:14:23.784Z,5.60
2023-04-04T05:16:36.304Z,5.95
2023-04-04T05:18:45.086Z,5.80
2023-04-04T05:20:57.794Z,6.75
2023-04-04T05:23:09.129Z,6.40
2023-04-04T05:25:20.747Z,6.40
2023-04-04T05:27:29.198Z,5.95
2023-04-04T05:29:44.732Z,6.55
2023-04-04T05:31:53.828Z,7.55
2023-04-04T05:34:08.580Z,6.18
2023-04-04T05:36:18.049Z,5.55
2023-04-04T05:38:33.453Z,6.03
2023-04-04T05:40:41.736Z,7.70
2023-04-04T05:42:58.290Z,7.03
2023-04-04T05:45:16.548Z,5.43
2023-04-04T05:47:25.215Z,5.88
2023-04-04T05:49:33.640Z,7.18
2023-04-04T05:51:43.278Z,6.30
2023-04-04T05:53:54.452Z,5.75
2023-04-04T05:56:07.552Z,6.40
2023-04-04T05:58:15.989Z,5.85
2023-04-04T06:00:34.505Z,7.28
2023-04-04T06:02:49.935Z,5.40
2023-04-04T06:05:01.140Z,6.40
2023-04-04T06:07:15.237Z,5.32
2023-04-04T06:09:23.158Z,5.97
2023-04-04T06:11:31.861Z,5.50
2023-04-04T06:13:45.676Z,5.30
2023-04-04T06:16:00.078Z,5.32
2023-04-04T06:18:13.666Z,5.20
2023-04-04T06:20:24.295Z,5.40
2023-04-04T06:22:35.230Z,5.00
2023-04-04T06:24:44.373Z,5.60
2023-04-04T06:26:54.496Z,4.95
2023-04-04T06:29:05.911Z,5.05
2023-04-04T06:31:22.848Z,4.25
2023-04-04T06:33:31.796Z,3.80
2023-04-04T06:35:40.130Z,3.90
2023-04-04T06:37:55.736Z,4.65
2023-04-04T06:40:05.011Z,4.65
2023-04-04T06:42:15.504Z,4.15
2023-04-04T06:44:29.648Z,4.55
2023-04-04T06:46:41.900Z,4.07
2023-04-04T06:48:50.189Z,4.35
2023-04-04T06:50:59.253Z,6.00
2023-04-04T06:53:08.866Z,4.40
2023-04-04T06:55:17.160Z,5.10
2023-04-04T06:57:25.462Z,4.63
2023-04-04T06:59:33.411Z,4.00
2023-04-04T07:01:44.585Z,6.05
2023-04-04T07:03:56.294Z,3.40
2023-04-04T07:06:06.340Z,3.45
2023-04-04T07:08:14.587Z,4.22
2023-04-04T07:10:22.759Z,3.55
2023-04-04T07:12:30.665Z,4.78
2023-04-04T07:14:38.898Z,3.47
2023-04-04T07:16:49.530Z,3.83
2023-04-04T07:18:57.554Z,4.35
2023-04-04T07:21:05.697Z,5.90
2023-04-04T07:23:14.004Z,3.75
2023-04-04T07:25:21.836Z,3.63
2023-04-04T07:27:29.689Z,3.72
2023-04-04T07:29:37.744Z,3.92
2023-04-04T07:31:45.819Z,3.80
2023-04-04T07:33:56.865Z,4.15
2023-04-04T07:36:05.262Z,3.90
2023-04-04T07:38:13.252Z,4.05
2023-04-04T07:40:21.784Z,4.72
2023-04-04T07:42:31.307Z,4.90
2023-04-04T07:44:39.303Z,4.72
2023-04-04T07:46:52.214Z,5.20
2023-04-04T07:49:09.528Z,4.97
2023-04-04T07:51:18.359Z,4.97
2023-04-04T07:53:26.323Z,5.13
2023-04-04T07:55:34.359Z,4.60
2023-04-04T07:57:42.657Z,4.47
2023-04-04T07:59:50.632Z,5.28
2023-04-04T08:01:58.884Z,5.28
2023-04-04T08:04:09.468Z,5.40
2023-04-04T08:06:17.401Z,5.20
2023-04-04T08:08:25.274Z,4.80
2023-04-04T08:10:33.273Z,5.47
2023-04-04T08:12:41.770Z,7.32
2023-04-04T08:14:49.822Z,4.43
2023-04-04T08:16:58.017Z,4.50
2023-04-04T08:19:07.338Z,5.50
2023-04-04T08:21:18.008Z,5.60
2023-04-04T08:23:26.726Z,4.88
2023-04-04T08:25:35.366Z,7.35
2023-04-04T08:27:45.215Z,5.13
2023-04-04T08:29:53.334Z,4.90
2023-04-04T08:32:01.318Z,5.15
2023-04-04T08:34:09.201Z,4.93
2023-04-04T08:36:20.014Z,9.25
2023-04-04T08:38:27.994Z,6.40
2023-04-04T08:40:36.340Z,6.05
2023-04-04T08:42:47.234Z,5.38
2023-04-04T08:44:57.620Z,6.70
2023-04-04T08:47:09.443Z,7.93
2023-04-04T08:49:21.425Z,5.65
2023-04-04T08:51:34.638Z,5.10
2023-04-04T08:53:43.248Z,5.72
2023-04-04T08:55:51.741Z,4.88
2023-04-04T08:57:59.591Z,6.03
2023-04-04T09:00:10.333Z,4.70
2023-04-04T09:02:27.801Z,5.07
2023-04-04T09:04:36.654Z,5.30
2023-04-04T09:06:47.458Z,4.88
2023-04-04T09:08:57.691Z,4.47
2023-04-04T09:11:06.954Z,4.65
2023-04-04T09:13:16.884Z,5.97
2023-04-04T09:15:25.287Z,8.15
2023-04-04T09:17:33.315Z,6.45
2023-04-04T09:19:41.709Z,5.78
2023-04-04T09:21:53.467Z,6.53
2023-04-04T09:24:03.239Z,5.40
2023-04-04T09:26:12.521Z,4.82
2023-04-04T09:28:21.803Z,5.53
2023-04-04T09:30:29.789Z,5.13
2023-04-04T09:32:37.802Z,5.53
2023-04-04T09:34:47.215Z,5.20
2023-04-04T09:36:58.401Z,5.50
2023-04-04T09:39:07.828Z,5.80
2023-04-04T09:41:19.005Z,4.70
2023-04-04T09:43:31.227Z,4.80
2023-04-04T09:45:42.926Z,4.57
2023-04-04T09:47:51.444Z,5.90
2023-04-04T09:50:01.593Z,6.40
2023-04-04T09:52:21.087Z,5.10
2023-04-04T09:54:30.759Z,4.90
2023-04-04T09:56:43.519Z,4.50
2023-04-04T09:59:03.379Z,3.80
2023-04-04T10:01:12.870Z,4.72
2023-04-04T10:03:22.032Z,5.13
2023-04-04T10:05:31.118Z,4.55
2023-04-04T10:07:44.447Z,4.10
2023-04-04T10:09:53.290Z,4.60
2023-04-04T10:12:11.926Z,4.28
2023-04-04T10:14:19.922Z,4.07
2023-04-04T10:16:28.189Z,4.80
2023-04-04T10:18:37.919Z,4.47
2023-04-04T10:20:47.666Z,4.10
2023-04-04T10:22:58.388Z,4.35
2023-04-04T10:25:06.651Z,4.70
2023-04-04T10:27:14.710Z,5.07
2023-04-04T10:29:22.680Z,5.55
2023-04-04T10:31:32.232Z,4.60
2023-04-04T10:33:55.557Z,5.05
2023-04-04T10:36:06.844Z,4.95
2023-04-04T10:38:19.032Z,4.60
2023-04-04T10:40:29.473Z,5.20
2023-04-04T10:42:42.177Z,4.75
2023-04-04T10:44:50.877Z,4.93
2023-04-04T10:47:01.458Z,5.72
2023-04-04T10:49:09.707Z,5.47
2023-04-04T10:51:20.223Z,5.50
2023-04-04T10:53:31.097Z,5.53
2023-04-04T10:55:41.401Z,5.88
2023-04-04T10:57:53.670Z,5.50
2023-04-04T11:00:05.293Z,5.20
2023-04-04T11:02:13.249Z,5.28
2023-04-04T11:04:23.701Z,4.97
2023-04-04T11:07:16.441Z,4.63
2023-04-04T11:10:05.939Z,5.00
2023-04-04T11:12:20.970Z,5.75
2023-04-04T11:14:33.189Z,5.70
2023-04-04T11:16:50.271Z,5.97
2023-04-04T11:19:02.936Z,6.25
2023-04-04T11:21:11.926Z,5.70
2023-04-04T11:23:23.109Z,5.13
2023-04-04T11:25:39.973Z,5.88
2023-04-04T11:27:53.747Z,5.43
2023-04-04T11:30:01.788Z,5.85
2023-04-04T11:32:37.609Z,6.65
2023-04-04T11:34:45.705Z,5.65
2023-04-04T11:36:58.159Z,6.80
2023-04-04T11:39:08.167Z,5.50
2023-04-04T11:41:15.920Z,6.70
2023-04-04T11:43:26.803Z,6.88
2023-04-04T11:45:39.133Z,5.43
2023-04-04T11:47:50.620Z,5.60
2023-04-04T11:49:59.573Z,6.95
2023-04-04T11:52:09.549Z,5.93
2023-04-04T11:54:18.736Z,6.28
2023-04-04T11:56:27.560Z,6.00
2023-04-04T11:58:39.393Z,6.63
2023-04-04T12:00:49.533Z,7.45
2023-04-04T12:02:58.636Z,6.15
2023-04-04T12:05:07.443Z,6.05
2023-04-04T12:07:16.731Z,6.18
2023-04-04T12:09:28.626Z,6.20
2023-04-04T12:11:38.999Z,6.32
2023-04-04T12:13:49.499Z,5.80
2023-04-04T12:15:59.250Z,5.70
2023-04-04T12:18:10.976Z,6.40
2023-04-04T12:20:19.871Z,6.43
2023-04-04T12:22:29.439Z,6.10
2023-04-04T12:24:38.481Z,5.07
2023-04-04T12:26:49.242Z,6.28
2023-04-04T12:29:01.021Z,6.25
2023-04-04T12:31:09.426Z,5.68
2023-04-04T12:33:17.604Z,5.32
2023-04-04T12:35:25.494Z,5.63
2023-04-04T12:37:34.512Z,5.80
2023-04-04T12:39:49.459Z,6.03
2023-04-04T12:42:00.327Z,5.30
2023-04-04T12:44:11.065Z,5.63
2023-04-04T12:46:20.298Z,6.20
2023-04-04T12:48:31.911Z,5.72
2023-04-04T12:50:53.086Z,6.05
2023-04-04T12:53:18.826Z,7.07
2023-04-04T12:55:34.575Z,5.60
2023-04-04T12:57:42.993Z,5.55
2023-04-04T12:59:54.039Z,6.38
2023-04-04T13:02:04.139Z,5.63
2023-04-04T13:04:17.782Z,5.75
2023-04-04T13:06:25.872Z,5.32
2023-04-04T13:08:34.946Z,6.22
2023-04-04T13:11:06.285Z,5.10
2023-04-04T13:13:14.683Z,5.32
2023-04-04T13:15:25.657Z,5.60
2023-04-04T13:17:46.281Z,5.55
2023-04-04T13:19:54.802Z,4.88
2023-04-04T13:22:05.506Z,5.60
2023-04-04T13:24:13.706Z,5.60
2023-04-04T13:26:21.869Z,4.85
2023-04-04T13:28:30.122Z,5.78
2023-04-04T13:30:43.875Z,5.30
2023-04-04T13:32:51.990Z,6.55
2023-04-04T13:35:00.418Z,4.90
2023-04-04T13:37:08.405Z,5.40
2023-04-04T13:39:16.487Z,5.80
2023-04-04T13:41:24.404Z,5.53
2023-04-04T13:43:32.484Z,4.95
2023-04-04T13:45:43.226Z,5.60
2023-04-04T13:47:51.439Z,5.20
2023-04-04T13:49:59.356Z,5.43
2023-04-04T13:52:07.490Z,5.63
2023-04-04T13:54:15.387Z,6.07
2023-04-04T13:56:23.585Z,5.75
2023-04-04T13:58:31.771Z,5.97
2023-04-04T14:00:43.084Z,5.85
2023-04-04T14:02:54.809Z,5.07
2023-04-04T14:05:03.953Z,6.38
2023-04-04T14:07:14.482Z,5.25
2023-04-04T14:09:23.532Z,4.65
2023-04-04T14:11:31.904Z,5.70
2023-04-04T14:13:40.023Z,5.30
2023-04-04T14:15:51.220Z,6.05
2023-04-04T14:17:59.327Z,6.90
2023-04-04T14:20:08.449Z,5.10
2023-04-04T14:22:16.683Z,5.88
2023-04-04T14:24:24.784Z,5.13
2023-04-04T14:26:34.068Z,5.95
2023-04-04T14:28:42.899Z,5.90
2023-04-04T14:30:54.060Z,5.60
2023-04-04T14:33:02.121Z,5.90
2023-04-04T14:35:10.781Z,5.85
2023-04-04T14:37:18.807Z,5.72
2023-04-04T14:39:26.890Z,5.18
2023-04-04T14:41:35.031Z,5.80
2023-04-04T14:43:43.870Z,4.78
2023-04-04T14:45:54.413Z,5.65
2023-04-04T14:48:02.665Z,6.00
2023-04-04T14:50:12.275Z,5.80
2023-04-04T14:52:20.214Z,6.35
2023-04-04T14:54:29.672Z,5.72
2023-04-04T14:56:38.341Z,5.47
2023-04-04T14:58:46.689Z,6.50
2023-04-04T15:00:57.313Z,6.30
2023-04-04T15:03:07.273Z,5.20
2023-04-04T15:05:16.516Z,5.60
2023-04-04T15:07:25.176Z,5.07
2023-04-04T15:09:33.264Z,5.65
2023-04-04T15:11:41.360Z,5.32
2023-04-04T15:13:49.260Z,5.80
2023-04-04T15:16:00.462Z,5.65
2023-04-04T15:18:09.136Z,6.13
2023-04-04T15:20:17.715Z,6.28
2023-04-04T15:22:25.762Z,6.10
2023-04-04T15:24:34.026Z,6.18
2023-04-04T15:26:42.132Z,5.90
2023-04-04T15:28:50.892Z,6.30
2023-04-04T15:31:04.293Z,6.53
2023-04-04T15:33:13.257Z,6.00
2023-04-04T15:35:22.830Z,6.00
2023-04-04T15:37:31.006Z,6.53
2023-04-04T15:39:49.649Z,6.47
2023-04-04T15:42:01.801Z,7.57
2023-04-04T15:44:09.851Z,6.97
2023-04-04T15:46:20.634Z,6.15
2023-04-04T15:48:28.707Z,5.70
2023-04-04T15:50:36.667Z,6.65
2023-04-04T15:52:44.922Z,6.25
2023-04-04T15:54:53.178Z,6.03
2023-04-04T15:57:02.181Z,5.63
2023-04-04T15:59:10.468Z,5.45
2023-04-04T16:01:21.197Z,7.15
2023-04-04T16:03:29.305Z,6.15
2023-04-04T16:05:37.375Z,6.07
2023-04-04T16:07:45.816Z,5.32
2023-04-04T16:09:53.801Z,5.93
2023-04-04T16:12:02.535Z,5.68
2023-04-04T16:14:12.376Z,5.50
2023-04-04T16:16:23.059Z,6.20
2023-04-04T16:18:31.208Z,6.85
2023-04-04T16:20:39.913Z,6.60
2023-04-04T16:22:48.101Z,5.65
2023-04-04T16:24:56.391Z,7.75
2023-04-04T16:27:04.558Z,5.60
2023-04-04T16:29:12.816Z,6.22
2023-04-04T16:31:23.417Z,5.60
2023-04-04T16:33:31.508Z,5.40
2023-04-04T16:35:40.078Z,6.32
2023-04-04T16:37:48.106Z,5.85
2023-04-04T16:39:56.832Z,6.30
2023-04-04T16:42:05.304Z,6.47
2023-04-04T16:44:13.541Z,5.85
2023-04-04T16:46:24.672Z,5.65
2023-04-04T16:48:32.755Z,5.50
2023-04-04T16:50:41.232Z,5.47
2023-04-04T16:52:49.710Z,6.07
2023-04-04T16:54:58.042Z,5.38
2023-04-04T16:57:07.595Z,5.57
2023-04-04T16:59:17.244Z,5.00
2023-04-04T17:01:28.228Z,5.40
2023-04-04T17:03:36.326Z,8.05
2023-04-04T17:05:44.470Z,5.97
2023-04-04T17:07:52.695Z,6.07
2023-04-04T17:10:01.320Z,5.72
2023-04-04T17:12:09.588Z,4.85
2023-04-04T17:14:18.502Z,5.35
2023-04-04T17:16:29.277Z,5.43
2023-04-04T17:18:37.414Z,4.82
2023-04-04T17:20:47.970Z,5.95
2023-04-04T17:22:56.155Z,6.22
2023-04-04T17:25:04.589Z,5.70
2023-04-04T17:27:12.770Z,6.05
2023-04-04T17:29:26.893Z,6.25
2023-04-04T17:31:37.773Z,7.70
2023-04-04T17:33:46.061Z,5.75
2023-04-04T17:35:54.036Z,5.30
2023-04-04T17:38:04.271Z,5.35
2023-04-04T17:40:12.954Z,5.25
2023-04-04T17:42:21.090Z,5.50
2023-04-04T17:44:29.099Z,5.10
2023-04-04T17:46:39.855Z,5.57
2023-04-04T17:48:48.676Z,5.68
2023-04-04T17:50:56.789Z,5.55
2023-04-04T17:53:05.081Z,6.78
2023-04-04T17:55:14.363Z,5.75
2023-04-04T17:57:22.931Z,6.72
2023-04-04T17:59:31.171Z,5.60
2023-04-04T18:01:43.932Z,5.82
2023-04-04T18:03:52.744Z,5.82
2023-04-04T18:06:01.513Z,5.95
2023-04-04T18:08:09.579Z,6.45
2023-04-04T18:10:17.861Z,6.22
2023-04-04T18:12:27.398Z,5.55
2023-04-04T18:14:35.745Z,6.65
2023-04-04T18:16:46.686Z,5.90
2023-04-04T18:18:54.723Z,5.88
2023-04-04T18:21:02.937Z,5.72
2023-04-04T18:23:11.033Z,5.72
2023-04-04T18:25:20.576Z,6.20
2023-04-04T18:27:28.664Z,6.10
2023-04-04T18:29:36.570Z,6.00
2023-04-04T18:31:47.459Z,6.32
2023-04-04T18:33:56.016Z,7.00
2023-04-04T18:36:04.181Z,6.10
2023-04-04T18:38:12.457Z,6.45
2023-04-04T18:40:20.496Z,7.07
2023-04-04T18:42:28.818Z,6.30
2023-04-04T18:44:37.011Z,6.07
2023-04-04T18:46:47.604Z,5.70
2023-04-04T18:48:55.718Z,6.82
2023-04-04T18:51:04.553Z,6.68
2023-04-04T18:53:12.507Z,6.70
2023-04-04T18:55:20.824Z,6.45
2023-04-04T18:57:28.875Z,7.70
2023-04-04T18:59:37.077Z,9.35
2023-04-04T19:01:47.587Z,7.97
2023-04-04T19:03:55.603Z,8.40
2023-04-04T19:06:04.604Z,7.72
2023-04-04T19:08:16.082Z,7.78
2023-04-04T19:10:25.004Z,8.00
2023-04-04T19:12:32.974Z,6.20
2023-04-04T19:14:40.896Z,6.55
2023-04-04T19:16:51.744Z,8.90
2023-04-04T19:18:59.850Z,7.97
2023-04-04T19:21:10.177Z,7.22
2023-04-04T19:23:18.877Z,6.85
2023-04-04T19:25:26.767Z,7.40
2023-04-04T19:27:34.772Z,9.18
2023-04-04T19:29:43.041Z,7.00
2023-04-04T19:31:56.250Z,7.68
2023-04-04T19:34:07.791Z,10.07
2023-04-04T19:36:15.880Z,7.20
2023-04-04T19:38:26.661Z,7.70
2023-04-04T19:40:50.895Z,7.20
2023-04-04T19:42:59.137Z,7.55
2023-04-04T19:45:15.943Z,8.35
2023-04-04T19:47:26.588Z,7.93
2023-04-04T19:49:35.647Z,8.18
2023-04-04T19:51:51.702Z,7.93
2023-04-04T19:54:03.073Z,7.90
2023-04-04T19:56:12.875Z,8.23
2023-04-04T19:58:22.578Z,8.20
2023-04-04T20:00:35.908Z,7.53
2023-04-04T20:03:08.667Z,8.50
2023-04-04T20:05:57.863Z,8.45
2023-04-04T20:08:07.553Z,9.55
2023-04-04T20:10:15.777Z,8.50
2023-04-04T20:12:25.848Z,7.43
2023-04-04T20:14:34.371Z,8.27
2023-04-04T20:16:52.458Z,9.68
2023-04-04T20:19:06.968Z,8.75
2023-04-04T20:21:17.534Z,8.13
2023-04-04T20:23:26.414Z,7.82
2023-04-04T20:25:44.910Z,8.02
2023-04-04T20:27:52.909Z,8.35
2023-04-04T20:30:01.156Z,7.90
2023-04-04T20:32:11.521Z,9.00
2023-04-04T20:34:50.603Z,8.93
2023-04-04T20:36:59.125Z,10.98
2023-04-04T20:39:31.335Z,11.85
2023-04-04T20:41:42.690Z,8.45
2023-04-04T20:43:54.878Z,8.90
2023-04-04T20:46:03.105Z,9.30
2023-04-04T20:48:11.597Z,7.97
2023-04-04T20:50:47.497Z,8.18
2023-04-04T20:52:59.479Z,8.80
2023-04-04T20:55:10.980Z,8.85
2023-04-04T20:57:27.533Z,12.00
2023-04-04T20:59:38.466Z,12.98
2023-04-04T21:01:46.272Z,10.85
2023-04-04T21:03:54.297Z,9.45
2023-04-04T21:06:05.746Z,9.80
2023-04-04T21:08:39.771Z,8.15
2023-04-04T21:10:53.223Z,8.63
2023-04-04T21:13:03.704Z,10.43
2023-04-04T21:15:13.205Z,9.45
2023-04-04T21:17:21.163Z,9.23
2023-04-04T21:19:29.889Z,9.68
2023-04-04T21:21:37.742Z,9.13
2023-04-04T21:23:51.206Z,8.43
2023-04-04T21:26:00.801Z,8.93
2023-04-04T21:28:11.928Z,8.00
2023-04-04T21:30:44.907Z,9.27
2023-04-04T21:32:52.767Z,8.20
2023-04-04T21:35:00.885Z,8.10
2023-04-04T21:37:11.932Z,8.20
2023-04-04T21:39:25.814Z,8.70
2023-04-04T21:41:34.911Z,8.30
2023-04-04T21:43:45.452Z,8.20
2023-04-04T21:45:53.415Z,8.90
2023-04-04T21:48:01.856Z,9.52
2023-04-04T21:50:11.231Z,7.95
2023-04-04T21:52:19.349Z,8.80
2023-04-04T21:54:27.272Z,8.98
2023-04-04T21:56:35.181Z,8.73
2023-04-04T21:58:45.916Z,9.77
2023-04-04T22:00:53.888Z,8.15
2023-04-04T22:03:01.986Z,8.50
2023-04-04T22:05:11.139Z,8.20
2023-04-04T22:07:19.308Z,8.27
2023-04-04T22:09:29.743Z,8.13
2023-04-04T22:11:39.037Z,8.05
2023-04-04T22:13:49.817Z,8.70
2023-04-04T22:15:59.058Z,7.63
2023-04-04T22:18:07.145Z,7.95
2023-04-04T22:20:15.872Z,8.73
2023-04-04T22:22:23.799Z,8.40
2023-04-04T22:24:32.214Z,10.15
2023-04-04T22:26:41.868Z,9.05
2023-04-04T22:28:52.576Z,9.15
2023-04-04T22:31:00.648Z,8.77
2023-04-04T22:33:08.760Z,8.55
2023-04-04T22:35:16.616Z,7.93
2023-04-04T22:37:24.532Z,9.82
2023-04-04T22:39:32.713Z,7.93
2023-04-04T22:41:40.579Z,10.77
2023-04-04T22:43:48.408Z,9.60
2023-04-04T22:45:59.085Z,9.60
2023-04-04T22:48:07.300Z,8.27
2023-04-04T22:50:16.262Z,9.27
2023-04-04T22:52:26.644Z,9.60
2023-04-04T22:54:34.867Z,8.13
2023-04-04T22:56:43.205Z,9.02
2023-04-04T22:58:51.706Z,8.80
2023-04-04T23:01:02.361Z,7.93
2023-04-04T23:03:10.273Z,9.55
2023-04-04T23:05:19.627Z,9.15
2023-04-04T23:07:28.725Z,8.65
2023-04-04T23:09:36.643Z,9.00
2023-04-04T23:11:44.921Z,8.40
2023-04-04T23:13:54.112Z,8.57
2023-04-04T23:16:04.686Z,9.52
2023-04-04T23:18:13.573Z,9.77
2023-04-04T23:20:21.897Z,9.30
2023-04-04T23:22:31.577Z,8.50
2023-04-04T23:24:40.490Z,8.23
2023-04-04T23:26:48.411Z,9.25
2023-04-04T23:28:57.147Z,10.02
2023-04-04T23:31:07.914Z,9.27
2023-04-04T23:33:18.276Z,9.50
2023-04-04T23:35:26.676Z,8.25
2023-04-04T23:37:34.664Z,11.55
2023-04-04T23:39:42.923Z,9.70
2023-04-04T23:41:51.378Z,8.95
2023-04-04T23:43:59.173Z,9.70
2023-04-04T23:46:10.382Z,10.68
2023-04-04T23:48:18.552Z,10.60
2023-04-04T23:50:26.870Z,10.45
2023-04-04T23:52:35.349Z,10.05
2023-04-04T23:54:43.293Z,9.45
2023-04-04T23:56:51.569Z,10.85
2023-04-04T23:58:59.544Z,9.57
